UAL154 PKMJ-PKWA
Flight info
| Callsign | UAL154 |
|---|---|
| Flight time | 0h 43m |
| Altitude | 30000 |
| Route | OREEO |
| Aircraft | B738/M-SDE2E3FGHIRWXY/LB1 |
Departure
| Time | 2026-04-27 04:19 |
|---|---|
| Airport | Marshall Islands International Airport (PKMJ) |
Arrival
| Time | 2026-04-27 05:02 |
|---|---|
| Airport | Bucholz Army Air Field (PKWA) |
| Time | Latitude | Longitude | Altitude | Speed | Heading |
|---|---|---|---|---|---|
| 2026-04-27 03:47 | 7.06823 | 171.28096 | 17 ft | 0 kts | 31° |
| 2026-04-27 04:12 | 7.06831 | 171.28102 | 17 ft | 3 kts | 59° |
| 2026-04-27 04:12 | 7.06844 | 171.28139 | 17 ft | 5 kts | 75° |
| 2026-04-27 04:12 | 7.06851 | 171.28169 | 17 ft | 3 kts | 82° |
| 2026-04-27 04:12 | 7.06846 | 171.28181 | 18 ft | 0 kts | 124° |
| 2026-04-27 04:13 | 7.06846 | 171.28183 | 18 ft | 0 kts | 125° |
| 2026-04-27 04:13 | 7.06839 | 171.28192 | 18 ft | 4 kts | 133° |
| 2026-04-27 04:13 | 7.06781 | 171.28204 | 18 ft | 11 kts | 194° |
| 2026-04-27 04:13 | 7.06729 | 171.28125 | 17 ft | 17 kts | 255° |
| 2026-04-27 04:14 | 7.06687 | 171.27953 | 19 ft | 28 kts | 257° |
| 2026-04-27 04:14 | 7.06641 | 171.27765 | 23 ft | 27 kts | 256° |
| 2026-04-27 04:14 | 7.06596 | 171.27570 | 24 ft | 30 kts | 257° |
| 2026-04-27 04:14 | 7.06545 | 171.27351 | 20 ft | 33 kts | 256° |
| 2026-04-27 04:15 | 7.06485 | 171.27098 | 16 ft | 37 kts | 256° |
| 2026-04-27 04:15 | 7.06413 | 171.26798 | 17 ft | 39 kts | 256° |
| 2026-04-27 04:15 | 7.06330 | 171.26511 | 22 ft | 32 kts | 249° |
| 2026-04-27 04:15 | 7.06266 | 171.26294 | 23 ft | 17 kts | 256° |
| 2026-04-27 04:16 | 7.06260 | 171.26190 | 21 ft | 7 kts | 284° |
| 2026-04-27 04:16 | 7.06262 | 171.26164 | 21 ft | 1 kts | 248° |
| 2026-04-27 04:16 | 7.06248 | 171.26167 | 21 ft | 2 kts | 102° |
| 2026-04-27 04:16 | 7.06249 | 171.26170 | 21 ft | 0 kts | 78° |
| 2026-04-27 04:18 | 7.06253 | 171.26192 | 21 ft | 16 kts | 77° |
| 2026-04-27 04:18 | 7.06339 | 171.26533 | 22 ft | 82 kts | 76° |
| 2026-04-27 04:18 | 7.06523 | 171.27283 | 19 ft | 137 kts | 76° |
| 2026-04-27 04:18 | 7.06782 | 171.28325 | 289 ft | 157 kts | 77° |
| 2026-04-27 04:19 | 7.07021 | 171.29373 | 947 ft | 154 kts | 76° |
| 2026-04-27 04:19 | 7.07327 | 171.30382 | 1542 ft | 155 kts | 59° |
| 2026-04-27 04:19 | 7.08178 | 171.31006 | 2063 ft | 162 kts | 17° |
| 2026-04-27 04:19 | 7.09349 | 171.30815 | 2442 ft | 185 kts | 335° |
| 2026-04-27 04:20 | 7.10250 | 171.29828 | 2846 ft | 206 kts | 298° |
| 2026-04-27 04:20 | 7.10522 | 171.28314 | 3063 ft | 233 kts | 265° |
| 2026-04-27 04:20 | 7.10210 | 171.26694 | 3503 ft | 245 kts | 255° |
| 2026-04-27 04:20 | 7.09743 | 171.24997 | 3923 ft | 258 kts | 254° |
| 2026-04-27 04:21 | 7.09253 | 171.23202 | 4303 ft | 273 kts | 259° |
| 2026-04-27 04:21 | 7.09216 | 171.21269 | 4695 ft | 284 kts | 283° |
| 2026-04-27 04:21 | 7.09819 | 171.19356 | 5210 ft | 290 kts | 294° |
| 2026-04-27 04:21 | 7.10592 | 171.17462 | 5831 ft | 294 kts | 295° |
| 2026-04-27 04:22 | 7.11395 | 171.15570 | 6561 ft | 294 kts | 295° |
| 2026-04-27 04:22 | 7.12256 | 171.13719 | 7259 ft | 295 kts | 298° |
| 2026-04-27 04:22 | 7.13179 | 171.11899 | 7988 ft | 295 kts | 298° |
| 2026-04-27 04:22 | 7.14122 | 171.10059 | 8713 ft | 298 kts | 298° |
| 2026-04-27 04:23 | 7.15060 | 171.08194 | 9420 ft | 300 kts | 298° |
| 2026-04-27 04:23 | 7.15991 | 171.06308 | 10119 ft | 304 kts | 297° |
| 2026-04-27 04:23 | 7.16948 | 171.04349 | 10483 ft | 321 kts | 297° |
| 2026-04-27 04:23 | 7.17956 | 171.02280 | 10886 ft | 335 kts | 297° |
| 2026-04-27 04:24 | 7.18993 | 171.00150 | 11255 ft | 349 kts | 297° |
| 2026-04-27 04:24 | 7.20078 | 170.97920 | 11607 ft | 363 kts | 297° |
| 2026-04-27 04:24 | 7.21204 | 170.95602 | 12149 ft | 370 kts | 297° |
| 2026-04-27 04:24 | 7.22330 | 170.93288 | 12756 ft | 374 kts | 297° |
| 2026-04-27 04:25 | 7.23475 | 170.90935 | 13426 ft | 377 kts | 296° |
| 2026-04-27 04:25 | 7.24636 | 170.88544 | 14069 ft | 381 kts | 297° |
| 2026-04-27 04:25 | 7.25809 | 170.86130 | 14674 ft | 385 kts | 296° |
| 2026-04-27 04:25 | 7.26994 | 170.83691 | 15316 ft | 389 kts | 296° |
| 2026-04-27 04:26 | 7.28166 | 170.81277 | 15940 ft | 392 kts | 296° |
| 2026-04-27 04:26 | 7.29375 | 170.78787 | 16562 ft | 395 kts | 296° |
| 2026-04-27 04:26 | 7.30581 | 170.76321 | 17110 ft | 399 kts | 296° |
| 2026-04-27 04:26 | 7.31871 | 170.73816 | 17676 ft | 403 kts | 297° |
| 2026-04-27 04:27 | 7.33170 | 170.71338 | 18237 ft | 406 kts | 297° |
| 2026-04-27 04:27 | 7.34487 | 170.68784 | 18801 ft | 408 kts | 296° |
| 2026-04-27 04:27 | 7.35753 | 170.66258 | 19307 ft | 412 kts | 296° |
| 2026-04-27 04:27 | 7.37025 | 170.63658 | 19840 ft | 415 kts | 295° |
| 2026-04-27 04:28 | 7.38287 | 170.61038 | 20315 ft | 419 kts | 295° |
| 2026-04-27 04:28 | 7.39554 | 170.58383 | 20800 ft | 422 kts | 295° |
| 2026-04-27 04:28 | 7.40813 | 170.55730 | 21373 ft | 423 kts | 295° |
| 2026-04-27 04:28 | 7.42085 | 170.53033 | 21415 ft | 429 kts | 295° |
| 2026-04-27 04:29 | 7.43349 | 170.50296 | 21417 ft | 433 kts | 294° |
| 2026-04-27 04:29 | 7.44595 | 170.47542 | 21925 ft | 434 kts | 294° |
| 2026-04-27 04:29 | 7.45805 | 170.44775 | 22571 ft | 432 kts | 292° |
| 2026-04-27 04:29 | 7.46948 | 170.41972 | 23026 ft | 435 kts | 291° |
| 2026-04-27 04:30 | 7.48057 | 170.39128 | 23515 ft | 437 kts | 290° |
| 2026-04-27 04:30 | 7.49147 | 170.36293 | 23780 ft | 444 kts | 290° |
| 2026-04-27 04:30 | 7.50264 | 170.33386 | 24325 ft | 443 kts | 290° |
| 2026-04-27 04:30 | 7.51385 | 170.30486 | 24810 ft | 445 kts | 290° |
| 2026-04-27 04:31 | 7.52516 | 170.27577 | 25211 ft | 448 kts | 291° |
| 2026-04-27 04:31 | 7.53649 | 170.24680 | 25782 ft | 447 kts | 290° |
| 2026-04-27 04:31 | 7.54797 | 170.21756 | 26403 ft | 444 kts | 291° |
| 2026-04-27 04:31 | 7.55929 | 170.18883 | 27054 ft | 441 kts | 291° |
| 2026-04-27 04:32 | 7.57052 | 170.16036 | 27689 ft | 437 kts | 291° |
| 2026-04-27 04:32 | 7.58165 | 170.13213 | 28322 ft | 433 kts | 291° |
| 2026-04-27 04:32 | 7.59265 | 170.10426 | 28795 ft | 433 kts | 291° |
| 2026-04-27 04:32 | 7.60383 | 170.07594 | 29224 ft | 435 kts | 290° |
| 2026-04-27 04:33 | 7.61499 | 170.04767 | 29641 ft | 436 kts | 290° |
| 2026-04-27 04:33 | 7.62621 | 170.01926 | 29806 ft | 440 kts | 290° |
| 2026-04-27 04:33 | 7.64888 | 169.96181 | 29817 ft | 449 kts | 290° |
| 2026-04-27 04:34 | 7.67235 | 169.90227 | 29812 ft | 465 kts | 290° |
| 2026-04-27 04:34 | 7.69629 | 169.84155 | 29814 ft | 467 kts | 290° |
| 2026-04-27 04:35 | 7.72023 | 169.78084 | 29809 ft | 465 kts | 290° |
| 2026-04-27 04:35 | 7.74408 | 169.72034 | 29805 ft | 465 kts | 290° |
| 2026-04-27 04:36 | 7.76813 | 169.65936 | 29804 ft | 466 kts | 290° |
| 2026-04-27 04:36 | 7.79206 | 169.59883 | 29799 ft | 465 kts | 290° |
| 2026-04-27 04:37 | 7.81588 | 169.53848 | 29800 ft | 466 kts | 290° |
| 2026-04-27 04:37 | 7.83981 | 169.47769 | 29801 ft | 466 kts | 290° |
| 2026-04-27 04:38 | 7.86376 | 169.41676 | 29802 ft | 466 kts | 290° |
| 2026-04-27 04:38 | 7.88743 | 169.35648 | 29802 ft | 465 kts | 290° |
| 2026-04-27 04:39 | 7.91134 | 169.29558 | 29801 ft | 465 kts | 290° |
| 2026-04-27 04:39 | 7.93504 | 169.23515 | 29802 ft | 466 kts | 290° |
| 2026-04-27 04:40 | 7.95887 | 169.17433 | 29801 ft | 465 kts | 290° |
| 2026-04-27 04:40 | 7.98273 | 169.11345 | 29801 ft | 465 kts | 290° |
| 2026-04-27 04:41 | 8.00642 | 169.05299 | 29801 ft | 465 kts | 290° |
| 2026-04-27 04:41 | 8.03005 | 168.99263 | 29405 ft | 456 kts | 290° |
| 2026-04-27 04:42 | 8.04155 | 168.96326 | 28879 ft | 452 kts | 290° |
| 2026-04-27 04:42 | 8.05309 | 168.93378 | 28174 ft | 452 kts | 290° |
| 2026-04-27 04:42 | 8.06448 | 168.90466 | 27598 ft | 448 kts | 290° |
| 2026-04-27 04:42 | 8.07589 | 168.87550 | 27091 ft | 443 kts | 290° |
| 2026-04-27 04:43 | 8.08721 | 168.84654 | 26538 ft | 440 kts | 290° |
| 2026-04-27 04:43 | 8.09832 | 168.81810 | 25980 ft | 436 kts | 290° |
| 2026-04-27 04:43 | 8.10931 | 168.78996 | 25421 ft | 433 kts | 290° |
| 2026-04-27 04:43 | 8.12032 | 168.76175 | 24902 ft | 428 kts | 290° |
| 2026-04-27 04:44 | 8.13110 | 168.73410 | 24451 ft | 422 kts | 290° |
| 2026-04-27 04:44 | 8.14179 | 168.70673 | 23925 ft | 419 kts | 290° |
| 2026-04-27 04:44 | 8.15242 | 168.67946 | 23377 ft | 416 kts | 290° |
| 2026-04-27 04:44 | 8.16290 | 168.65259 | 22828 ft | 413 kts | 290° |
| 2026-04-27 04:45 | 8.17347 | 168.62550 | 22273 ft | 410 kts | 290° |
| 2026-04-27 04:45 | 8.18388 | 168.59882 | 21723 ft | 408 kts | 290° |
| 2026-04-27 04:45 | 8.19410 | 168.57259 | 21177 ft | 406 kts | 290° |
| 2026-04-27 04:45 | 8.20437 | 168.54622 | 20626 ft | 404 kts | 290° |
| 2026-04-27 04:46 | 8.21464 | 168.51987 | 20067 ft | 402 kts | 290° |
| 2026-04-27 04:46 | 8.22486 | 168.49361 | 19506 ft | 400 kts | 290° |
| 2026-04-27 04:46 | 8.23489 | 168.46788 | 18951 ft | 397 kts | 291° |
| 2026-04-27 04:46 | 8.24494 | 168.44206 | 18461 ft | 393 kts | 291° |
| 2026-04-27 04:47 | 8.25481 | 168.41670 | 18181 ft | 382 kts | 291° |
| 2026-04-27 04:47 | 8.26432 | 168.39227 | 18062 ft | 369 kts | 291° |
| 2026-04-27 04:47 | 8.27369 | 168.36819 | 17941 ft | 372 kts | 290° |
| 2026-04-27 04:47 | 8.28191 | 168.34705 | 17784 ft | 389 kts | 291° |
| 2026-04-27 04:48 | 8.29028 | 168.32552 | 17422 ft | 396 kts | 291° |
| 2026-04-27 04:48 | 8.30033 | 168.29967 | 16856 ft | 396 kts | 291° |
| 2026-04-27 04:48 | 8.31040 | 168.27377 | 16178 ft | 396 kts | 291° |
| 2026-04-27 04:48 | 8.32045 | 168.24795 | 15557 ft | 395 kts | 291° |
| 2026-04-27 04:49 | 8.33048 | 168.22218 | 14958 ft | 393 kts | 291° |
| 2026-04-27 04:49 | 8.34034 | 168.19684 | 14373 ft | 390 kts | 291° |
| 2026-04-27 04:49 | 8.35022 | 168.17140 | 13786 ft | 388 kts | 291° |
| 2026-04-27 04:49 | 8.36005 | 168.14610 | 13203 ft | 386 kts | 291° |
| 2026-04-27 04:50 | 8.36970 | 168.12123 | 12624 ft | 383 kts | 292° |
| 2026-04-27 04:50 | 8.37943 | 168.09618 | 12041 ft | 381 kts | 292° |
| 2026-04-27 04:50 | 8.38903 | 168.07146 | 11472 ft | 378 kts | 292° |
| 2026-04-27 04:50 | 8.39863 | 168.04675 | 10901 ft | 376 kts | 292° |
| 2026-04-27 04:51 | 8.40807 | 168.02246 | 10461 ft | 369 kts | 292° |
| 2026-04-27 04:51 | 8.41720 | 167.99892 | 10287 ft | 355 kts | 292° |
| 2026-04-27 04:51 | 8.42600 | 167.97620 | 10173 ft | 340 kts | 292° |
| 2026-04-27 04:51 | 8.43445 | 167.95442 | 10049 ft | 326 kts | 292° |
| 2026-04-27 04:52 | 8.44257 | 167.93344 | 9937 ft | 313 kts | 292° |
| 2026-04-27 04:52 | 8.45034 | 167.91341 | 9652 ft | 308 kts | 292° |
| 2026-04-27 04:52 | 8.45816 | 167.89323 | 9242 ft | 308 kts | 292° |
| 2026-04-27 04:52 | 8.46598 | 167.87308 | 8838 ft | 307 kts | 292° |
| 2026-04-27 04:53 | 8.47379 | 167.85295 | 8437 ft | 306 kts | 293° |
| 2026-04-27 04:53 | 8.48149 | 167.83310 | 8046 ft | 305 kts | 293° |
| 2026-04-27 04:53 | 8.48915 | 167.81334 | 7657 ft | 304 kts | 293° |
| 2026-04-27 04:53 | 8.49688 | 167.79338 | 7265 ft | 302 kts | 293° |
| 2026-04-27 04:54 | 8.50452 | 167.77367 | 6878 ft | 301 kts | 293° |
| 2026-04-27 04:54 | 8.51209 | 167.75412 | 6491 ft | 300 kts | 293° |
| 2026-04-27 04:54 | 8.51971 | 167.73442 | 6103 ft | 299 kts | 293° |
| 2026-04-27 04:54 | 8.52726 | 167.71487 | 5814 ft | 294 kts | 294° |
| 2026-04-27 04:55 | 8.53445 | 167.69626 | 5757 ft | 283 kts | 294° |
| 2026-04-27 04:55 | 8.54175 | 167.67743 | 5241 ft | 292 kts | 294° |
| 2026-04-27 04:55 | 8.54926 | 167.65813 | 4811 ft | 293 kts | 295° |
| 2026-04-27 04:55 | 8.55656 | 167.63927 | 4517 ft | 289 kts | 294° |
| 2026-04-27 04:56 | 8.56382 | 167.62050 | 4287 ft | 282 kts | 294° |
| 2026-04-27 04:56 | 8.57075 | 167.60249 | 4209 ft | 270 kts | 294° |
| 2026-04-27 04:56 | 8.57780 | 167.58545 | 4144 ft | 255 kts | 300° |
| 2026-04-27 04:56 | 8.58766 | 167.57126 | 4003 ft | 237 kts | 324° |
| 2026-04-27 04:57 | 8.60180 | 167.56369 | 3730 ft | 225 kts | 348° |
| 2026-04-27 04:57 | 8.61671 | 167.55977 | 3454 ft | 222 kts | 351° |
| 2026-04-27 04:57 | 8.63167 | 167.55579 | 3194 ft | 219 kts | 351° |
| 2026-04-27 04:57 | 8.64655 | 167.55318 | 2944 ft | 211 kts | 5° |
| 2026-04-27 04:58 | 8.65994 | 167.55708 | 2758 ft | 194 kts | 39° |
| 2026-04-27 04:58 | 8.66826 | 167.56683 | 2648 ft | 180 kts | 61° |
| 2026-04-27 04:58 | 8.67302 | 167.57837 | 2487 ft | 172 kts | 70° |
| 2026-04-27 04:58 | 8.67636 | 167.58964 | 2335 ft | 165 kts | 72° |
| 2026-04-27 04:59 | 8.67959 | 167.60053 | 2197 ft | 158 kts | 71° |
| 2026-04-27 04:59 | 8.68289 | 167.61104 | 2032 ft | 156 kts | 70° |
| 2026-04-27 04:59 | 8.68610 | 167.62126 | 1875 ft | 152 kts | 70° |
| 2026-04-27 04:59 | 8.68934 | 167.63164 | 1731 ft | 155 kts | 70° |
| 2026-04-27 05:00 | 8.69256 | 167.64204 | 1589 ft | 157 kts | 70° |
| 2026-04-27 05:00 | 8.69571 | 167.65234 | 1514 ft | 144 kts | 70° |
| 2026-04-27 05:00 | 8.69863 | 167.66177 | 1317 ft | 140 kts | 70° |
| 2026-04-27 05:00 | 8.70155 | 167.67116 | 1067 ft | 138 kts | 70° |
| 2026-04-27 05:01 | 8.70443 | 167.68050 | 902 ft | 139 kts | 70° |
| 2026-04-27 05:01 | 8.70727 | 167.69005 | 764 ft | 138 kts | 72° |
| 2026-04-27 05:01 | 8.70983 | 167.69930 | 512 ft | 140 kts | 70° |
| 2026-04-27 05:01 | 8.71279 | 167.70875 | 351 ft | 141 kts | 69° |
| 2026-04-27 05:02 | 8.71597 | 167.71825 | 163 ft | 142 kts | 69° |
| 2026-04-27 05:02 | 8.71890 | 167.72768 | 21 ft | 129 kts | 71° |
| 2026-04-27 05:02 | 8.72139 | 167.73575 | 18 ft | 35 kts | 72° |
| 2026-04-27 05:03 | 8.72207 | 167.73791 | 25 ft | 30 kts | 72° |
| 2026-04-27 05:03 | 8.72257 | 167.73949 | 28 ft | 12 kts | 71° |
| 2026-04-27 05:03 | 8.72304 | 167.73982 | 29 ft | 7 kts | 349° |
| 2026-04-27 05:03 | 8.72345 | 167.73970 | 30 ft | 4 kts | 343° |
| 2026-04-27 05:04 | 8.72361 | 167.73965 | 31 ft | 1 kts | 345° |
| 2026-04-27 05:04 | 8.72409 | 167.73959 | 32 ft | 11 kts | 18° |
| 2026-04-27 05:04 | 8.72438 | 167.74033 | 31 ft | 16 kts | 77° |
| 2026-04-27 05:04 | 8.72503 | 167.74130 | 27 ft | 18 kts | 22° |
| 2026-04-27 05:05 | 8.72605 | 167.74167 | 32 ft | 12 kts | 18° |
| 2026-04-27 05:05 | 8.72657 | 167.74153 | 33 ft | 2 kts | 298° |
| 2026-04-27 05:05 | 8.72659 | 167.74150 | 34 ft | 2 kts | 298° |
| 2026-04-27 05:05 | 8.72655 | 167.74132 | 38 ft | 4 kts | 215° |
| 2026-04-27 05:06 | 8.72603 | 167.74101 | 39 ft | 11 kts | 214° |
| 2026-04-27 05:06 | 8.72590 | 167.74062 | 43 ft | 1 kts | 316° |
| 2026-04-27 05:06 | 8.72594 | 167.74069 | 42 ft | 0 kts | 79° |
| 2026-04-27 05:06 | 8.72595 | 167.74083 | 41 ft | 4 kts | 88° |
| 2026-04-27 05:07 | 8.72604 | 167.74095 | 40 ft | 1 kts | 22° |
| 2026-04-27 05:07 | 8.72608 | 167.74097 | 40 ft | 1 kts | 28° |
| 2026-04-27 05:07 | 8.72614 | 167.74100 | 40 ft | 0 kts | 22° |
| 2026-04-27 05:07 | 8.72617 | 167.74101 | 40 ft | 0 kts | 20° |
| 2026-04-27 05:08 | 8.72618 | 167.74101 | 40 ft | 0 kts | 20° |